sensor_id;sensor_type;location;lat;lon;timestamp;pressure;altitude;pressure_sealevel;temperature;humidity
55490;BME280;44029;52.956;4.772;2023-06-22T00:00:52;102140.03;;;19.89;100.00
55490;BME280;44029;52.956;4.772;2023-06-22T00:03:19;102144.47;;;20.01;100.00
55490;BME280;44029;52.956;4.772;2023-06-22T00:05:48;102148.13;;;19.81;100.00
55490;BME280;44029;52.956;4.772;2023-06-22T00:08:14;102149.50;;;19.94;100.00
55490;BME280;44029;52.956;4.772;2023-06-22T00:10:40;102150.03;;;19.85;100.00
55490;BME280;44029;52.956;4.772;2023-06-22T00:13:07;102152.78;;;20.06;100.00
55490;BME280;44029;52.956;4.772;2023-06-22T00:15:34;102143.41;;;19.71;100.00
55490;BME280;44029;52.956;4.772;2023-06-22T00:17:59;102158.97;;;19.62;100.00
55490;BME280;44029;52.956;4.772;2023-06-22T00:20:26;102160.06;;;19.76;100.00
55490;BME280;44029;52.956;4.772;2023-06-22T00:22:55;102150.91;;;19.81;100.00
55490;BME280;44029;52.956;4.772;2023-06-22T00:25:21;102155.63;;;19.65;100.00
55490;BME280;44029;52.956;4.772;2023-06-22T00:27:47;102155.34;;;19.56;100.00
55490;BME280;44029;52.956;4.772;2023-06-22T00:30:12;102153.97;;;19.59;100.00
55490;BME280;44029;52.956;4.772;2023-06-22T00:32:38;102153.38;;;19.72;100.00
55490;BME280;44029;52.956;4.772;2023-06-22T00:35:03;102151.19;;;19.84;100.00
55490;BME280;44029;52.956;4.772;2023-06-22T00:37:29;102150.34;;;19.74;100.00
55490;BME280;44029;52.956;4.772;2023-06-22T00:39:55;102155.63;;;19.55;100.00
55490;BME280;44029;52.956;4.772;2023-06-22T00:42:20;102170.91;;;19.37;100.00
55490;BME280;44029;52.956;4.772;2023-06-22T00:44:46;102163.97;;;19.49;100.00
55490;BME280;44029;52.956;4.772;2023-06-22T00:47:13;102168.13;;;19.57;100.00
55490;BME280;44029;52.956;4.772;2023-06-22T00:49:40;102170.63;;;19.59;100.00
55490;BME280;44029;52.956;4.772;2023-06-22T00:52:06;102173.41;;;19.64;100.00
55490;BME280;44029;52.956;4.772;2023-06-22T00:54:35;102164.53;;;19.77;100.00
55490;BME280;44029;52.956;4.772;2023-06-22T00:57:02;102158.94;;;19.67;100.00
55490;BME280;44029;52.956;4.772;2023-06-22T00:59:27;102160.06;;;19.40;100.00
55490;BME280;44029;52.956;4.772;2023-06-22T01:01:54;102166.19;;;19.63;100.00
55490;BME280;44029;52.956;4.772;2023-06-22T01:04:21;102168.13;;;19.47;100.00
55490;BME280;44029;52.956;4.772;2023-06-22T01:09:54;102159.78;;;19.62;100.00
55490;BME280;44029;52.956;4.772;2023-06-22T01:12:22;102161.75;;;19.57;100.00
55490;BME280;44029;52.956;4.772;2023-06-22T01:14:58;102158.97;;;19.82;100.00
55490;BME280;44029;52.956;4.772;2023-06-22T01:17:26;102158.94;;;19.72;100.00
55490;BME280;44029;52.956;4.772;2023-06-22T01:19:54;102161.16;;;19.85;100.00
55490;BME280;44029;52.956;4.772;2023-06-22T01:22:24;102155.88;;;19.89;100.00
55490;BME280;44029;52.956;4.772;2023-06-22T01:25:13;102152.28;;;19.88;100.00
55490;BME280;44029;52.956;4.772;2023-06-22T01:28:12;102148.91;;;20.07;100.00
55490;BME280;44029;52.956;4.772;2023-06-22T01:30:45;102147.53;;;19.99;100.00
55490;BME280;44029;52.956;4.772;2023-06-22T01:33:12;102143.06;;;19.93;100.00
55490;BME280;44029;52.956;4.772;2023-06-22T01:35:39;102149.50;;;19.94;100.00
55490;BME280;44029;52.956;4.772;2023-06-22T01:38:05;102147.84;;;19.82;100.00
55490;BME280;44029;52.956;4.772;2023-06-22T01:40:32;102152.81;;;19.96;100.00
55490;BME280;44029;52.956;4.772;2023-06-22T01:43:00;102154.50;;;19.86;100.00
55490;BME280;44029;52.956;4.772;2023-06-22T01:45:27;102156.44;;;19.91;100.00
55490;BME280;44029;52.956;4.772;2023-06-22T01:47:53;102157.28;;;19.86;100.00
55490;BME280;44029;52.956;4.772;2023-06-22T01:50:19;102159.53;;;19.74;100.00
55490;BME280;44029;52.956;4.772;2023-06-22T01:52:45;102157.00;;;19.47;100.00
55490;BME280;44029;52.956;4.772;2023-06-22T01:55:10;102157.28;;;19.71;100.00
55490;BME280;44029;52.956;4.772;2023-06-22T01:57:36;102152.28;;;19.88;100.00
55490;BME280;44029;52.956;4.772;2023-06-22T02:02:37;102166.72;;;19.85;100.00
55490;BME280;44029;52.956;4.772;2023-06-22T02:05:06;102153.41;;;19.77;100.00
55490;BME280;44029;52.956;4.772;2023-06-22T02:07:34;102151.19;;;19.79;100.00
55490;BME280;44029;52.956;4.772;2023-06-22T02:10:03;102150.31;;;19.84;100.00
55490;BME280;44029;52.956;4.772;2023-06-22T02:12:30;102150.34;;;19.48;100.00
55490;BME280;44029;52.956;4.772;2023-06-22T02:14:57;102153.13;;;19.43;100.00
55490;BME280;44029;52.956;4.772;2023-06-22T02:17:23;102161.19;;;19.39;100.00
55490;BME280;44029;52.956;4.772;2023-06-22T02:19:49;102157.88;;;19.47;100.00
55490;BME280;44029;52.956;4.772;2023-06-22T02:22:14;102150.63;;;19.46;100.00
55490;BME280;44029;52.956;4.772;2023-06-22T02:24:40;102147.84;;;19.57;100.00
55490;BME280;44029;52.956;4.772;2023-06-22T02:27:05;102138.94;;;19.60;100.00
55490;BME280;44029;52.956;4.772;2023-06-22T02:29:32;102144.22;;;19.41;100.00
55490;BME280;44029;52.956;4.772;2023-06-22T02:31:58;102138.13;;;19.44;100.00
55490;BME280;44029;52.956;4.772;2023-06-22T02:34:24;102153.97;;;19.54;100.00
55490;BME280;44029;52.956;4.772;2023-06-22T02:36:50;102143.13;;;19.57;100.00
55490;BME280;44029;52.956;4.772;2023-06-22T02:39:20;102143.38;;;19.86;100.00
55490;BME280;44029;52.956;4.772;2023-06-22T02:41:48;102142.28;;;19.62;100.00
55490;BME280;44029;52.956;4.772;2023-06-22T02:44:14;102144.50;;;19.65;100.00
55490;BME280;44029;52.956;4.772;2023-06-22T02:46:39;102138.38;;;19.63;100.00
55490;BME280;44029;52.956;4.772;2023-06-22T02:49:04;102138.97;;;19.49;100.00
55490;BME280;44029;52.956;4.772;2023-06-22T02:51:33;102145.34;;;19.86;100.00
55490;BME280;44029;52.956;4.772;2023-06-22T02:53:59;102143.94;;;19.68;100.00
55490;BME280;44029;52.956;4.772;2023-06-22T02:56:25;102141.97;;;19.94;100.00
55490;BME280;44029;52.956;4.772;2023-06-22T02:58:51;102142.47;;;20.12;100.00
55490;BME280;44029;52.956;4.772;2023-06-22T03:01:16;102143.41;;;19.71;100.00
55490;BME280;44029;52.956;4.772;2023-06-22T03:03:41;102142.00;;;19.58;100.00
55490;BME280;44029;52.956;4.772;2023-06-22T03:06:07;102150.06;;;19.49;100.00
55490;BME280;44029;52.956;4.772;2023-06-22T03:08:32;102145.06;;;19.41;100.00
55490;BME280;44029;52.956;4.772;2023-06-22T03:10:58;102141.97;;;19.63;100.00
55490;BME280;44029;52.956;4.772;2023-06-22T03:13:23;102143.94;;;19.58;100.00
55490;BME280;44029;52.956;4.772;2023-06-22T03:15:49;102143.66;;;19.69;100.00
55490;BME280;44029;52.956;4.772;2023-06-22T03:18:15;102136.69;;;19.98;100.00
55490;BME280;44029;52.956;4.772;2023-06-22T03:20:41;102130.03;;;19.94;100.00
55490;BME280;44029;52.956;4.772;2023-06-22T03:23:06;102139.50;;;19.77;100.00
55490;BME280;44029;52.956;4.772;2023-06-22T03:25:32;102137.56;;;19.62;100.00
55490;BME280;44029;52.956;4.772;2023-06-22T03:27:58;102147.53;;;19.84;100.00
55490;BME280;44029;52.956;4.772;2023-06-22T03:30:26;102145.84;;;19.98;100.00
55490;BME280;44029;52.956;4.772;2023-06-22T03:32:51;102148.13;;;19.60;100.00
55490;BME280;44029;52.956;4.772;2023-06-22T03:35:17;102152.00;;;19.54;100.00
55490;BME280;44029;52.956;4.772;2023-06-22T03:37:42;102160.06;;;19.56;100.00
55490;BME280;44029;52.956;4.772;2023-06-22T03:40:08;102156.47;;;19.81;100.00
55490;BME280;44029;52.956;4.772;2023-06-22T03:42:34;102157.81;;;19.99;100.00
55490;BME280;44029;52.956;4.772;2023-06-22T03:45:01;102149.53;;;19.73;100.00
55490;BME280;44029;52.956;4.772;2023-06-22T03:47:26;102148.41;;;19.79;100.00
55490;BME280;44029;52.956;4.772;2023-06-22T03:49:52;102146.72;;;19.94;100.00
55490;BME280;44029;52.956;4.772;2023-06-22T03:52:20;102147.03;;;20.57;100.00
55490;BME280;44029;52.956;4.772;2023-06-22T03:54:45;102141.97;;;20.75;100.00
55490;BME280;44029;52.956;4.772;2023-06-22T03:57:11;102138.44;;;20.98;100.00
55490;BME280;44029;52.956;4.772;2023-06-22T03:59:36;102140.78;;;21.20;100.00
55490;BME280;44029;52.956;4.772;2023-06-22T04:02:02;102132.22;;;21.51;100.00
55490;BME280;44029;52.956;4.772;2023-06-22T04:04:27;102141.81;;;21.69;100.00
55490;BME280;44029;52.956;4.772;2023-06-22T04:06:53;102138.13;;;22.27;100.00
55490;BME280;44029;52.956;4.772;2023-06-22T04:09:18;102130.94;;;22.83;100.00
55490;BME280;44029;52.956;4.772;2023-06-22T04:11:44;102108.28;;;23.37;100.00
55490;BME280;44029;52.956;4.772;2023-06-22T04:14:09;102102.41;;;23.38;100.00
55490;BME280;44029;52.956;4.772;2023-06-22T04:16:34;102095.78;;;23.81;100.00
55490;BME280;44029;52.956;4.772;2023-06-22T04:19:00;102090.53;;;23.60;100.00
55490;BME280;44029;52.956;4.772;2023-06-22T04:21:25;102082.28;;;23.83;100.00
55490;BME280;44029;52.956;4.772;2023-06-22T04:23:50;102087.84;;;23.22;100.00
55490;BME280;44029;52.956;4.772;2023-06-22T04:26:16;102085.25;;;23.12;100.00
55490;BME280;44029;52.956;4.772;2023-06-22T04:28:41;102097.63;;;22.49;100.00
55490;BME280;44029;52.956;4.772;2023-06-22T04:31:07;102084.25;;;23.03;100.00
55490;BME280;44029;52.956;4.772;2023-06-22T04:33:32;102088.84;;;23.12;100.00
55490;BME280;44029;52.956;4.772;2023-06-22T04:35:58;102089.69;;;23.13;100.00
55490;BME280;44029;52.956;4.772;2023-06-22T04:38:26;102095.91;;;22.72;100.00
55490;BME280;44029;52.956;4.772;2023-06-22T04:40:52;102096.66;;;22.77;100.00
55490;BME280;44029;52.956;4.772;2023-06-22T04:43:18;102094.81;;;22.87;100.00
55490;BME280;44029;52.956;4.772;2023-06-22T04:45:44;102101.63;;;22.81;100.00
55490;BME280;44029;52.956;4.772;2023-06-22T04:48:09;102102.97;;;22.83;100.00
55490;BME280;44029;52.956;4.772;2023-06-22T04:50:36;102102.03;;;23.26;100.00
55490;BME280;44029;52.956;4.772;2023-06-22T04:53:04;102095.34;;;23.08;100.00
55490;BME280;44029;52.956;4.772;2023-06-22T04:55:31;102087.91;;;23.36;100.00
55490;BME280;44029;52.956;4.772;2023-06-22T04:57:57;102090.25;;;23.29;100.00
55490;BME280;44029;52.956;4.772;2023-06-22T05:00:30;102094.16;;;23.14;100.00
55490;BME280;44029;52.956;4.772;2023-06-22T05:02:56;102099.16;;;23.31;100.00
55490;BME280;44029;52.956;4.772;2023-06-22T05:05:23;102093.78;;;23.34;100.00
55490;BME280;44029;52.956;4.772;2023-06-22T05:07:50;102087.69;;;23.46;100.00
55490;BME280;44029;52.956;4.772;2023-06-22T05:10:18;102079.44;;;23.55;100.00
55490;BME280;44029;52.956;4.772;2023-06-22T05:12:44;102068.53;;;23.40;100.00
55490;BME280;44029;52.956;4.772;2023-06-22T05:15:10;102067.00;;;23.61;100.00
55490;BME280;44029;52.956;4.772;2023-06-22T05:17:36;102066.75;;;23.90;100.00
55490;BME280;44029;52.956;4.772;2023-06-22T05:20:06;102062.69;;;23.83;100.00
55490;BME280;44029;52.956;4.772;2023-06-22T05:22:32;102062.59;;;23.88;100.00
55490;BME280;44029;52.956;4.772;2023-06-22T05:24:57;102058.94;;;23.73;100.00
55490;BME280;44029;52.956;4.772;2023-06-22T05:27:23;102053.25;;;24.06;100.00
55490;BME280;44029;52.956;4.772;2023-06-22T05:29:48;102056.53;;;24.22;100.00
55490;BME280;44029;52.956;4.772;2023-06-22T05:32:13;102059.44;;;24.31;100.00
55490;BME280;44029;52.956;4.772;2023-06-22T05:34:39;102044.88;;;24.43;100.00
55490;BME280;44029;52.956;4.772;2023-06-22T05:37:05;102041.38;;;24.37;100.00
55490;BME280;44029;52.956;4.772;2023-06-22T05:39:31;102031.06;;;24.10;100.00
55490;BME280;44029;52.956;4.772;2023-06-22T05:41:56;102023.91;;;24.04;100.00
55490;BME280;44029;52.956;4.772;2023-06-22T05:44:22;102027.06;;;24.39;100.00
55490;BME280;44029;52.956;4.772;2023-06-22T05:46:47;102030.66;;;24.39;100.00
55490;BME280;44029;52.956;4.772;2023-06-22T05:49:14;102034.25;;;24.67;100.00
55490;BME280;44029;52.956;4.772;2023-06-22T05:51:39;102021.84;;;24.82;100.00
55490;BME280;44029;52.956;4.772;2023-06-22T05:54:05;102029.06;;;25.06;100.00
55490;BME280;44029;52.956;4.772;2023-06-22T05:56:30;102028.91;;;25.25;100.00
55490;BME280;44029;52.956;4.772;2023-06-22T05:58:56;102022.81;;;26.20;100.00
55490;BME280;44029;52.956;4.772;2023-06-22T06:01:21;102034.34;;;25.61;100.00
55490;BME280;44029;52.956;4.772;2023-06-22T06:03:47;102033.69;;;26.13;100.00
55490;BME280;44029;52.956;4.772;2023-06-22T06:06:12;102028.41;;;27.08;100.00
55490;BME280;44029;52.956;4.772;2023-06-22T06:08:39;102034.56;;;28.25;100.00
55490;BME280;44029;52.956;4.772;2023-06-22T06:11:04;102036.25;;;27.88;100.00
55490;BME280;44029;52.956;4.772;2023-06-22T06:13:29;102048.09;;;27.08;100.00
55490;BME280;44029;52.956;4.772;2023-06-22T06:15:56;102048.25;;;27.11;100.00
55490;BME280;44029;52.956;4.772;2023-06-22T06:18:21;102041.47;;;27.68;100.00
55490;BME280;44029;52.956;4.772;2023-06-22T06:20:46;102028.44;;;28.02;100.00
55490;BME280;44029;52.956;4.772;2023-06-22T06:23:12;102026.94;;;28.68;100.00
55490;BME280;44029;52.956;4.772;2023-06-22T06:25:37;102025.84;;;28.60;100.00
55490;BME280;44029;52.956;4.772;2023-06-22T06:28:03;102022.44;;;28.88;100.00
55490;BME280;44029;52.956;4.772;2023-06-22T06:30:28;102034.47;;;28.76;100.00
55490;BME280;44029;52.956;4.772;2023-06-22T06:32:54;102039.16;;;28.72;100.00
55490;BME280;44029;52.956;4.772;2023-06-22T06:35:19;102029.00;;;28.38;100.00
55490;BME280;44029;52.956;4.772;2023-06-22T06:37:47;102028.75;;;29.06;100.00
55490;BME280;44029;52.956;4.772;2023-06-22T06:40:14;102036.59;;;27.86;100.00
55490;BME280;44029;52.956;4.772;2023-06-22T06:42:41;102041.47;;;27.12;100.00
55490;BME280;44029;52.956;4.772;2023-06-22T06:45:16;102038.13;;;27.84;100.00
55490;BME280;44029;52.956;4.772;2023-06-22T06:47:42;102043.63;;;28.31;100.00
55490;BME280;44029;52.956;4.772;2023-06-22T06:50:08;102042.19;;;29.21;100.00
55490;BME280;44029;52.956;4.772;2023-06-22T06:52:34;102036.78;;;29.16;100.00
55490;BME280;44029;52.956;4.772;2023-06-22T06:54:59;102036.66;;;28.58;100.00
55490;BME280;44029;52.956;4.772;2023-06-22T06:57:25;102038.94;;;28.14;100.00
55490;BME280;44029;52.956;4.772;2023-06-22T06:59:57;102035.69;;;29.79;100.00
55490;BME280;44029;52.956;4.772;2023-06-22T07:02:25;102039.34;;;30.04;100.00
55490;BME280;44029;52.956;4.772;2023-06-22T07:04:52;102042.25;;;29.58;100.00
55490;BME280;44029;52.956;4.772;2023-06-22T07:07:18;102040.28;;;30.08;100.00
55490;BME280;44029;52.956;4.772;2023-06-22T07:09:43;102040.56;;;30.31;100.00
55490;BME280;44029;52.956;4.772;2023-06-22T07:12:09;102039.91;;;30.34;100.00
55490;BME280;44029;52.956;4.772;2023-06-22T07:14:34;102043.19;;;29.50;100.00
55490;BME280;44029;52.956;4.772;2023-06-22T07:16:59;102034.94;;;28.66;100.00
55490;BME280;44029;52.956;4.772;2023-06-22T07:19:26;102036.16;;;29.56;100.00
55490;BME280;44029;52.956;4.772;2023-06-22T07:21:52;102035.72;;;28.87;100.00
55490;BME280;44029;52.956;4.772;2023-06-22T07:24:19;102034.03;;;29.78;100.00
55490;BME280;44029;52.956;4.772;2023-06-22T07:26:46;102038.66;;;29.82;100.00
55490;BME280;44029;52.956;4.772;2023-06-22T07:29:13;102030.00;;;30.16;100.00
55490;BME280;44029;52.956;4.772;2023-06-22T07:31:38;102035.22;;;29.89;100.00
55490;BME280;44029;52.956;4.772;2023-06-22T07:34:06;102035.16;;;29.15;100.00
55490;BME280;44029;52.956;4.772;2023-06-22T07:36:31;102030.44;;;29.19;100.00
55490;BME280;44029;52.956;4.772;2023-06-22T07:38:56;102034.28;;;28.39;100.00
55490;BME280;44029;52.956;4.772;2023-06-22T07:41:22;102025.28;;;29.71;100.00
55490;BME280;44029;52.956;4.772;2023-06-22T07:43:47;102025.56;;;28.32;100.00
55490;BME280;44029;52.956;4.772;2023-06-22T07:46:13;102025.47;;;29.16;100.00
55490;BME280;44029;52.956;4.772;2023-06-22T07:48:38;102028.34;;;28.62;100.00
55490;BME280;44029;52.956;4.772;2023-06-22T07:51:04;102027.19;;;28.12;100.00
55490;BME280;44029;52.956;4.772;2023-06-22T07:53:31;102029.19;;;27.43;100.00
55490;BME280;44029;52.956;4.772;2023-06-22T07:55:56;102033.28;;;26.64;100.00
55490;BME280;44029;52.956;4.772;2023-06-22T07:58:21;102034.41;;;26.89;100.00
55490;BME280;44029;52.956;4.772;2023-06-22T08:00:47;102025.50;;;27.51;100.00
55490;BME280;44029;52.956;4.772;2023-06-22T08:03:14;102017.88;;;27.90;100.00
55490;BME280;44029;52.956;4.772;2023-06-22T08:05:39;102014.41;;;27.85;100.00
55490;BME280;44029;52.956;4.772;2023-06-22T08:08:04;102017.44;;;28.51;100.00
55490;BME280;44029;52.956;4.772;2023-06-22T08:10:30;102016.78;;;28.55;100.00
55490;BME280;44029;52.956;4.772;2023-06-22T08:12:55;102026.31;;;28.41;100.00
55490;BME280;44029;52.956;4.772;2023-06-22T08:15:20;102032.69;;;27.23;100.00
55490;BME280;44029;52.956;4.772;2023-06-22T08:17:47;102030.38;;;27.72;100.00
55490;BME280;44029;52.956;4.772;2023-06-22T08:20:12;102039.00;;;27.67;100.00
55490;BME280;44029;52.956;4.772;2023-06-22T08:22:39;102023.59;;;28.03;100.00
55490;BME280;44029;52.956;4.772;2023-06-22T08:25:05;102025.84;;;27.80;100.00
55490;BME280;44029;52.956;4.772;2023-06-22T08:27:31;102019.94;;;27.72;100.00
55490;BME280;44029;52.956;4.772;2023-06-22T08:30:00;102015.22;;;27.55;100.00
55490;BME280;44029;52.956;4.772;2023-06-22T08:32:27;102018.66;;;27.61;100.00
55490;BME280;44029;52.956;4.772;2023-06-22T08:34:56;102013.97;;;28.55;100.00
55490;BME280;44029;52.956;4.772;2023-06-22T08:37:22;102016.25;;;27.81;100.00
55490;BME280;44029;52.956;4.772;2023-06-22T08:39:59;102015.84;;;28.00;100.00
55490;BME280;44029;52.956;4.772;2023-06-22T08:42:26;102025.66;;;27.93;100.00
55490;BME280;44029;52.956;4.772;2023-06-22T08:44:51;102014.34;;;27.64;100.00
55490;BME280;44029;52.956;4.772;2023-06-22T08:47:16;102023.66;;;27.94;100.00
55490;BME280;44029;52.956;4.772;2023-06-22T08:49:42;102024.13;;;27.96;100.00
55490;BME280;44029;52.956;4.772;2023-06-22T08:52:07;102029.19;;;28.32;100.00
55490;BME280;44029;52.956;4.772;2023-06-22T08:54:33;102016.09;;;27.38;100.00
55490;BME280;44029;52.956;4.772;2023-06-22T08:57:00;102019.69;;;27.86;100.00
55490;BME280;44029;52.956;4.772;2023-06-22T08:59:26;102008.03;;;27.67;100.00
55490;BME280;44029;52.956;4.772;2023-06-22T09:01:51;102009.81;;;28.73;100.00
55490;BME280;44029;52.956;4.772;2023-06-22T09:04:16;102005.63;;;28.16;100.00
55490;BME280;44029;52.956;4.772;2023-06-22T09:06:42;102001.50;;;28.77;100.00
55490;BME280;44029;52.956;4.772;2023-06-22T09:09:12;102006.72;;;28.24;100.00
55490;BME280;44029;52.956;4.772;2023-06-22T09:11:38;102008.84;;;27.37;100.00
55490;BME280;44029;52.956;4.772;2023-06-22T09:14:03;101999.44;;;27.16;100.00
55490;BME280;44029;52.956;4.772;2023-06-22T09:16:29;101994.81;;;27.11;100.00
55490;BME280;44029;52.956;4.772;2023-06-22T09:18:55;101998.19;;;26.87;100.00
55490;BME280;44029;52.956;4.772;2023-06-22T09:21:20;102004.06;;;27.29;100.00
55490;BME280;44029;52.956;4.772;2023-06-22T09:23:46;101998.53;;;26.86;100.00
55490;BME280;44029;52.956;4.772;2023-06-22T09:26:15;101999.31;;;27.04;100.00
55490;BME280;44029;52.956;4.772;2023-06-22T09:28:40;102007.63;;;26.30;100.00
55490;BME280;44029;52.956;4.772;2023-06-22T09:31:06;102003.41;;;25.84;100.00
55490;BME280;44029;52.956;4.772;2023-06-22T09:33:32;102005.16;;;26.55;100.00
55490;BME280;44029;52.956;4.772;2023-06-22T09:35:57;102002.00;;;26.30;100.00
55490;BME280;44029;52.956;4.772;2023-06-22T09:38:23;101997.53;;;26.47;100.00
55490;BME280;44029;52.956;4.772;2023-06-22T09:40:48;102006.28;;;26.10;100.00
55490;BME280;44029;52.956;4.772;2023-06-22T09:43:13;102000.28;;;25.94;100.00
55490;BME280;44029;52.956;4.772;2023-06-22T09:45:39;102003.31;;;26.15;100.00
55490;BME280;44029;52.956;4.772;2023-06-22T09:48:04;101999.66;;;25.49;100.00
55490;BME280;44029;52.956;4.772;2023-06-22T09:50:30;102008.00;;;25.89;100.00
55490;BME280;44029;52.956;4.772;2023-06-22T09:52:55;102002.00;;;26.21;100.00
55490;BME280;44029;52.956;4.772;2023-06-22T09:55:21;102009.59;;;26.38;100.00
55490;BME280;44029;52.956;4.772;2023-06-22T09:57:47;102010.50;;;25.90;100.00
55490;BME280;44029;52.956;4.772;2023-06-22T10:00:13;102002.16;;;26.25;100.00
55490;BME280;44029;52.956;4.772;2023-06-22T10:02:41;102015.59;;;25.79;100.00
55490;BME280;44029;52.956;4.772;2023-06-22T10:05:06;102006.34;;;25.30;100.00
55490;BME280;44029;52.956;4.772;2023-06-22T10:07:33;102014.91;;;25.74;100.00
55490;BME280;44029;52.956;4.772;2023-06-22T10:09:58;102012.09;;;25.34;100.00
55490;BME280;44029;52.956;4.772;2023-06-22T10:12:25;102012.47;;;25.41;100.00
55490;BME280;44029;52.956;4.772;2023-06-22T10:14:50;102009.22;;;25.48;100.00
55490;BME280;44029;52.956;4.772;2023-06-22T10:17:15;102010.00;;;25.88;100.00
55490;BME280;44029;52.956;4.772;2023-06-22T10:19:41;102012.66;;;25.44;100.00
55490;BME280;44029;52.956;4.772;2023-06-22T10:22:06;102007.50;;;25.78;100.00
55490;BME280;44029;52.956;4.772;2023-06-22T10:24:32;102014.13;;;25.82;100.00
55490;BME280;44029;52.956;4.772;2023-06-22T10:26:57;102008.56;;;25.99;100.00
55490;BME280;44029;52.956;4.772;2023-06-22T10:29:23;102006.84;;;25.81;100.00
55490;BME280;44029;52.956;4.772;2023-06-22T10:31:48;101994.75;;;26.38;100.00
55490;BME280;44029;52.956;4.772;2023-06-22T10:34:13;101986.78;;;26.14;100.00
55490;BME280;44029;52.956;4.772;2023-06-22T10:36:39;101984.31;;;26.12;100.00
55490;BME280;44029;52.956;4.772;2023-06-22T10:39:04;101984.88;;;25.83;100.00
55490;BME280;44029;52.956;4.772;2023-06-22T10:41:31;101981.13;;;25.88;100.00
55490;BME280;44029;52.956;4.772;2023-06-22T10:43:56;101978.19;;;26.10;100.00
55490;BME280;44029;52.956;4.772;2023-06-22T10:46:23;101966.47;;;26.26;100.00
55490;BME280;44029;52.956;4.772;2023-06-22T10:48:49;101971.25;;;26.08;100.00
55490;BME280;44029;52.956;4.772;2023-06-22T10:51:14;101985.00;;;25.60;100.00
55490;BME280;44029;52.956;4.772;2023-06-22T10:53:40;101984.28;;;25.46;100.00
55490;BME280;44029;52.956;4.772;2023-06-22T10:56:05;101984.34;;;25.72;100.00
55490;BME280;44029;52.956;4.772;2023-06-22T10:58:30;101976.88;;;26.25;100.00
55490;BME280;44029;52.956;4.772;2023-06-22T11:00:56;101976.72;;;26.30;100.00
55490;BME280;44029;52.956;4.772;2023-06-22T11:03:21;101978.06;;;26.41;100.00
55490;BME280;44029;52.956;4.772;2023-06-22T11:05:46;101982.16;;;26.44;100.00
55490;BME280;44029;52.956;4.772;2023-06-22T11:08:13;101985.63;;;26.58;100.00
55490;BME280;44029;52.956;4.772;2023-06-22T11:10:38;101984.00;;;26.66;100.00
55490;BME280;44029;52.956;4.772;2023-06-22T11:13:03;101979.69;;;26.42;100.00
55490;BME280;44029;52.956;4.772;2023-06-22T11:15:30;101975.41;;;26.80;100.00
55490;BME280;44029;52.956;4.772;2023-06-22T11:17:55;101975.38;;;26.54;100.00
55490;BME280;44029;52.956;4.772;2023-06-22T11:20:21;101981.50;;;26.56;100.00
55490;BME280;44029;52.956;4.772;2023-06-22T11:22:46;101980.84;;;26.59;100.00
55490;BME280;44029;52.956;4.772;2023-06-22T11:25:12;101985.66;;;26.32;100.00
55490;BME280;44029;52.956;4.772;2023-06-22T11:27:37;101987.31;;;26.25;100.00
55490;BME280;44029;52.956;4.772;2023-06-22T11:30:03;101995.72;;;26.51;100.00
55490;BME280;44029;52.956;4.772;2023-06-22T11:32:29;101980.34;;;26.48;100.00
55490;BME280;44029;52.956;4.772;2023-06-22T11:34:54;101997.69;;;26.59;100.00
55490;BME280;44029;52.956;4.772;2023-06-22T11:37:19;101998.22;;;26.52;100.00
55490;BME280;44029;52.956;4.772;2023-06-22T11:39:45;101990.06;;;26.07;100.00
55490;BME280;44029;52.956;4.772;2023-06-22T11:42:10;101985.34;;;26.60;100.00
55490;BME280;44029;52.956;4.772;2023-06-22T11:44:36;101980.50;;;26.17;100.00
55490;BME280;44029;52.956;4.772;2023-06-22T11:47:01;101978.34;;;26.57;100.00
55490;BME280;44029;52.956;4.772;2023-06-22T11:49:29;101973.25;;;26.25;100.00
55490;BME280;44029;52.956;4.772;2023-06-22T11:51:54;101963.84;;;26.38;100.00
55490;BME280;44029;52.956;4.772;2023-06-22T11:54:20;101957.22;;;26.25;100.00
55490;BME280;44029;52.956;4.772;2023-06-22T11:56:45;101948.81;;;26.60;100.00
55490;BME280;44029;52.956;4.772;2023-06-22T11:59:10;101964.06;;;25.75;100.00
55490;BME280;44029;52.956;4.772;2023-06-22T12:01:36;101967.88;;;25.79;100.00
55490;BME280;44029;52.956;4.772;2023-06-22T12:04:02;101961.06;;;25.63;100.00
55490;BME280;44029;52.956;4.772;2023-06-22T12:06:35;101961.28;;;25.84;100.00
55490;BME280;44029;52.956;4.772;2023-06-22T12:09:03;101963.75;;;25.77;100.00
55490;BME280;44029;52.956;4.772;2023-06-22T12:11:29;101969.38;;;25.77;100.00
55490;BME280;44029;52.956;4.772;2023-06-22T12:13:55;101968.06;;;25.43;100.00
55490;BME280;44029;52.956;4.772;2023-06-22T12:16:20;101957.44;;;25.62;100.00
55490;BME280;44029;52.956;4.772;2023-06-22T12:18:47;101961.50;;;26.05;100.00
55490;BME280;44029;52.956;4.772;2023-06-22T12:21:12;101956.38;;;25.98;100.00
55490;BME280;44029;52.956;4.772;2023-06-22T12:23:37;101943.31;;;26.11;100.00
55490;BME280;44029;52.956;4.772;2023-06-22T12:26:03;101943.81;;;26.48;100.00
55490;BME280;44029;52.956;4.772;2023-06-22T12:28:28;101932.44;;;26.62;100.00
55490;BME280;44029;52.956;4.772;2023-06-22T12:30:53;101921.19;;;26.62;100.00
55490;BME280;44029;52.956;4.772;2023-06-22T12:33:19;101918.84;;;26.55;100.00
55490;BME280;44029;52.956;4.772;2023-06-22T12:35:45;101913.91;;;26.61;100.00
55490;BME280;44029;52.956;4.772;2023-06-22T12:38:11;101913.44;;;26.41;100.00
55490;BME280;44029;52.956;4.772;2023-06-22T12:40:36;101924.31;;;26.17;100.00